Terminal Aerodrome Forecast
Issued by NWS Wilmington, OH

Current Version | Previous Version | Text Only | Print | Product List | Glossary Off
Versions: 1 2 3 4 5 6 7 8 9 10 11 12 13 14 15 16 17 18 19 20 21 22 23 24 25

000
FTUS41 KILN 270300 AAA
TAFCMH
TAF AMD
KCMH 270312Z 2703/2724 22008KT P6SM VCSH BKN035 OVC050
      TEMPO 2703/2706 3SM -TSRA OVC020CB
     FM271000 20007KT P6SM VCSH SCT035 OVC050
     FM271700 22011G19KT P6SM -SHRA VCTS BKN035CB
     FM272300 27015G25KT P6SM VCSH BKN040=

USA.gov is the U.S. government's official web portal to all federal, state and local government web resources and services.